sensor_id;sensor_type;location;lat;lon;timestamp;temperature;humidity
31597;DHT22;18201;50.978;7.034;2023-03-19T00:00:19;11.60;1.00
31597;DHT22;18201;50.978;7.034;2023-03-19T00:00:51;11.50;1.00
31597;DHT22;18201;50.978;7.034;2023-03-19T00:01:22;11.60;1.00
31597;DHT22;18201;50.978;7.034;2023-03-19T00:01:53;11.60;1.00
31597;DHT22;18201;50.978;7.034;2023-03-19T00:02:25;11.50;1.00
31597;DHT22;18201;50.978;7.034;2023-03-19T00:02:56;11.50;1.00
31597;DHT22;18201;50.978;7.034;2023-03-19T00:03:27;11.50;1.00
31597;DHT22;18201;50.978;7.034;2023-03-19T00:03:59;11.50;1.00
31597;DHT22;18201;50.978;7.034;2023-03-19T00:04:30;11.50;1.00
31597;DHT22;18201;50.978;7.034;2023-03-19T00:05:01;11.50;1.00
31597;DHT22;18201;50.978;7.034;2023-03-19T00:05:33;11.50;1.00
31597;DHT22;18201;50.978;7.034;2023-03-19T00:06:04;11.50;1.00
31597;DHT22;18201;50.978;7.034;2023-03-19T00:06:35;11.50;1.00
31597;DHT22;18201;50.978;7.034;2023-03-19T00:07:07;11.50;1.00
31597;DHT22;18201;50.978;7.034;2023-03-19T00:07:37;11.50;1.00
31597;DHT22;18201;50.978;7.034;2023-03-19T00:08:08;11.50;1.00
31597;DHT22;18201;50.978;7.034;2023-03-19T00:08:40;11.50;1.00
31597;DHT22;18201;50.978;7.034;2023-03-19T00:09:11;11.50;1.00
31597;DHT22;18201;50.978;7.034;2023-03-19T00:09:42;11.50;1.00
31597;DHT22;18201;50.978;7.034;2023-03-19T00:10:14;11.50;1.00
31597;DHT22;18201;50.978;7.034;2023-03-19T00:10:45;11.50;1.00
31597;DHT22;18201;50.978;7.034;2023-03-19T00:11:16;11.50;1.00
31597;DHT22;18201;50.978;7.034;2023-03-19T00:11:48;11.50;1.00
31597;DHT22;18201;50.978;7.034;2023-03-19T00:12:19;11.50;1.00
31597;DHT22;18201;50.978;7.034;2023-03-19T00:12:51;11.50;1.00
31597;DHT22;18201;50.978;7.034;2023-03-19T00:13:23;11.50;1.00
31597;DHT22;18201;50.978;7.034;2023-03-19T00:13:54;11.50;1.00
31597;DHT22;18201;50.978;7.034;2023-03-19T00:14:25;11.50;1.00
31597;DHT22;18201;50.978;7.034;2023-03-19T00:14:56;11.50;1.00
31597;DHT22;18201;50.978;7.034;2023-03-19T00:15:27;11.50;1.00
31597;DHT22;18201;50.978;7.034;2023-03-19T00:15:58;11.50;1.00
31597;DHT22;18201;50.978;7.034;2023-03-19T00:16:29;11.50;1.00
31597;DHT22;18201;50.978;7.034;2023-03-19T00:17:01;11.50;1.00
31597;DHT22;18201;50.978;7.034;2023-03-19T00:17:32;11.50;1.00
31597;DHT22;18201;50.978;7.034;2023-03-19T00:18:04;11.50;1.00
31597;DHT22;18201;50.978;7.034;2023-03-19T00:18:35;11.50;1.00
31597;DHT22;18201;50.978;7.034;2023-03-19T00:19:08;11.40;1.00
31597;DHT22;18201;50.978;7.034;2023-03-19T00:19:42;11.50;1.00
31597;DHT22;18201;50.978;7.034;2023-03-19T00:20:13;11.40;1.00
31597;DHT22;18201;50.978;7.034;2023-03-19T00:20:44;11.40;1.00
31597;DHT22;18201;50.978;7.034;2023-03-19T00:21:16;11.40;1.00
31597;DHT22;18201;50.978;7.034;2023-03-19T00:21:47;11.40;1.00
31597;DHT22;18201;50.978;7.034;2023-03-19T00:22:18;11.40;1.00
31597;DHT22;18201;50.978;7.034;2023-03-19T00:22:50;11.40;1.00
31597;DHT22;18201;50.978;7.034;2023-03-19T00:23:21;11.40;1.00
31597;DHT22;18201;50.978;7.034;2023-03-19T00:23:52;11.40;1.00
31597;DHT22;18201;50.978;7.034;2023-03-19T00:24:23;11.40;1.00
31597;DHT22;18201;50.978;7.034;2023-03-19T00:24:55;11.40;1.00
31597;DHT22;18201;50.978;7.034;2023-03-19T00:25:26;11.40;1.00
31597;DHT22;18201;50.978;7.034;2023-03-19T00:25:57;11.40;1.00
31597;DHT22;18201;50.978;7.034;2023-03-19T00:26:29;11.40;1.00
31597;DHT22;18201;50.978;7.034;2023-03-19T00:27:01;11.40;1.00
31597;DHT22;18201;50.978;7.034;2023-03-19T00:27:33;11.30;1.00
31597;DHT22;18201;50.978;7.034;2023-03-19T00:28:08;11.30;1.00
31597;DHT22;18201;50.978;7.034;2023-03-19T00:28:40;11.30;1.00
31597;DHT22;18201;50.978;7.034;2023-03-19T00:29:14;11.30;1.00
31597;DHT22;18201;50.978;7.034;2023-03-19T00:29:45;11.30;1.00
31597;DHT22;18201;50.978;7.034;2023-03-19T00:30:20;11.30;1.00
31597;DHT22;18201;50.978;7.034;2023-03-19T00:30:51;11.30;1.00
31597;DHT22;18201;50.978;7.034;2023-03-19T00:31:22;11.30;1.00
31597;DHT22;18201;50.978;7.034;2023-03-19T00:31:54;11.30;1.00
31597;DHT22;18201;50.978;7.034;2023-03-19T00:32:25;11.30;1.00
31597;DHT22;18201;50.978;7.034;2023-03-19T00:32:56;11.30;1.00
31597;DHT22;18201;50.978;7.034;2023-03-19T00:33:27;11.30;1.00
31597;DHT22;18201;50.978;7.034;2023-03-19T00:33:59;11.30;1.00
31597;DHT22;18201;50.978;7.034;2023-03-19T00:34:30;11.30;1.00
31597;DHT22;18201;50.978;7.034;2023-03-19T00:35:02;11.30;1.00
31597;DHT22;18201;50.978;7.034;2023-03-19T00:35:37;11.30;1.00
31597;DHT22;18201;50.978;7.034;2023-03-19T00:36:09;11.30;1.00
31597;DHT22;18201;50.978;7.034;2023-03-19T00:36:41;11.30;1.00
31597;DHT22;18201;50.978;7.034;2023-03-19T00:37:16;11.30;1.00
31597;DHT22;18201;50.978;7.034;2023-03-19T00:37:47;11.30;1.00
31597;DHT22;18201;50.978;7.034;2023-03-19T00:38:18;11.30;1.00
31597;DHT22;18201;50.978;7.034;2023-03-19T00:38:50;11.30;1.00
31597;DHT22;18201;50.978;7.034;2023-03-19T00:39:21;11.30;1.00
31597;DHT22;18201;50.978;7.034;2023-03-19T00:39:52;11.30;1.00
31597;DHT22;18201;50.978;7.034;2023-03-19T00:40:24;11.30;1.00
31597;DHT22;18201;50.978;7.034;2023-03-19T00:40:55;11.30;1.00
31597;DHT22;18201;50.978;7.034;2023-03-19T00:41:26;11.20;1.00
31597;DHT22;18201;50.978;7.034;2023-03-19T00:41:58;11.20;1.00
31597;DHT22;18201;50.978;7.034;2023-03-19T00:42:29;11.20;1.00
31597;DHT22;18201;50.978;7.034;2023-03-19T00:43:00;11.30;1.00
31597;DHT22;18201;50.978;7.034;2023-03-19T00:43:33;11.20;1.00
31597;DHT22;18201;50.978;7.034;2023-03-19T00:44:05;11.20;1.00
31597;DHT22;18201;50.978;7.034;2023-03-19T00:44:37;11.20;1.00
31597;DHT22;18201;50.978;7.034;2023-03-19T00:45:09;11.20;1.00
31597;DHT22;18201;50.978;7.034;2023-03-19T00:45:41;11.20;1.00
31597;DHT22;18201;50.978;7.034;2023-03-19T00:46:12;11.20;1.00
31597;DHT22;18201;50.978;7.034;2023-03-19T00:46:44;11.20;1.00
31597;DHT22;18201;50.978;7.034;2023-03-19T00:47:16;11.20;1.00
31597;DHT22;18201;50.978;7.034;2023-03-19T00:47:47;11.20;1.00
31597;DHT22;18201;50.978;7.034;2023-03-19T00:48:18;11.20;1.00
31597;DHT22;18201;50.978;7.034;2023-03-19T00:48:50;11.20;1.00
31597;DHT22;18201;50.978;7.034;2023-03-19T00:49:24;11.20;1.00
31597;DHT22;18201;50.978;7.034;2023-03-19T00:49:55;11.20;1.00
31597;DHT22;18201;50.978;7.034;2023-03-19T00:50:27;11.20;1.00
31597;DHT22;18201;50.978;7.034;2023-03-19T00:51:01;11.20;1.00
31597;DHT22;18201;50.978;7.034;2023-03-19T00:51:32;11.20;1.00
31597;DHT22;18201;50.978;7.034;2023-03-19T00:52:04;11.20;1.00
31597;DHT22;18201;50.978;7.034;2023-03-19T00:52:35;11.10;1.00
31597;DHT22;18201;50.978;7.034;2023-03-19T00:53:06;11.10;1.00
31597;DHT22;18201;50.978;7.034;2023-03-19T00:53:39;11.10;1.00
31597;DHT22;18201;50.978;7.034;2023-03-19T00:54:11;11.10;1.00
31597;DHT22;18201;50.978;7.034;2023-03-19T00:54:42;11.10;1.00
31597;DHT22;18201;50.978;7.034;2023-03-19T00:55:14;11.10;1.00
31597;DHT22;18201;50.978;7.034;2023-03-19T00:55:45;11.10;1.00
31597;DHT22;18201;50.978;7.034;2023-03-19T00:56:17;11.10;1.00
31597;DHT22;18201;50.978;7.034;2023-03-19T00:56:49;11.10;1.00
31597;DHT22;18201;50.978;7.034;2023-03-19T00:57:20;11.00;1.00
31597;DHT22;18201;50.978;7.034;2023-03-19T00:57:51;11.00;1.00
31597;DHT22;18201;50.978;7.034;2023-03-19T00:58:25;11.00;1.00
31597;DHT22;18201;50.978;7.034;2023-03-19T00:58:57;11.00;1.00
31597;DHT22;18201;50.978;7.034;2023-03-19T00:59:28;11.00;1.00
31597;DHT22;18201;50.978;7.034;2023-03-19T01:00:00;11.00;1.00
31597;DHT22;18201;50.978;7.034;2023-03-19T01:00:31;11.00;1.00
31597;DHT22;18201;50.978;7.034;2023-03-19T01:01:02;11.00;1.00
31597;DHT22;18201;50.978;7.034;2023-03-19T01:01:34;11.00;1.00
31597;DHT22;18201;50.978;7.034;2023-03-19T01:02:05;11.00;1.00
31597;DHT22;18201;50.978;7.034;2023-03-19T01:02:36;11.00;1.00
31597;DHT22;18201;50.978;7.034;2023-03-19T01:03:08;10.90;1.00
31597;DHT22;18201;50.978;7.034;2023-03-19T01:03:39;10.90;1.00
31597;DHT22;18201;50.978;7.034;2023-03-19T01:04:10;10.90;1.00
31597;DHT22;18201;50.978;7.034;2023-03-19T01:04:42;11.00;1.00
31597;DHT22;18201;50.978;7.034;2023-03-19T01:05:13;10.90;1.00
31597;DHT22;18201;50.978;7.034;2023-03-19T01:05:46;10.90;1.00
31597;DHT22;18201;50.978;7.034;2023-03-19T01:06:17;10.90;1.00
31597;DHT22;18201;50.978;7.034;2023-03-19T01:06:49;10.90;1.00
31597;DHT22;18201;50.978;7.034;2023-03-19T01:07:20;10.90;1.00
31597;DHT22;18201;50.978;7.034;2023-03-19T01:07:52;10.90;1.00
31597;DHT22;18201;50.978;7.034;2023-03-19T01:08:25;10.90;1.00
31597;DHT22;18201;50.978;7.034;2023-03-19T01:08:59;10.90;1.00
31597;DHT22;18201;50.978;7.034;2023-03-19T01:09:30;10.90;1.00
31597;DHT22;18201;50.978;7.034;2023-03-19T01:10:03;10.90;1.00
31597;DHT22;18201;50.978;7.034;2023-03-19T01:10:34;10.90;1.00
31597;DHT22;18201;50.978;7.034;2023-03-19T01:11:07;10.80;1.00
31597;DHT22;18201;50.978;7.034;2023-03-19T01:11:38;10.80;1.00
31597;DHT22;18201;50.978;7.034;2023-03-19T01:12:10;10.80;1.00
31597;DHT22;18201;50.978;7.034;2023-03-19T01:12:41;10.80;1.00
31597;DHT22;18201;50.978;7.034;2023-03-19T01:13:12;10.80;1.00
31597;DHT22;18201;50.978;7.034;2023-03-19T01:13:44;10.80;1.00
31597;DHT22;18201;50.978;7.034;2023-03-19T01:14:18;10.80;1.00
31597;DHT22;18201;50.978;7.034;2023-03-19T01:14:50;10.80;1.00
31597;DHT22;18201;50.978;7.034;2023-03-19T01:15:21;10.80;1.00
31597;DHT22;18201;50.978;7.034;2023-03-19T01:15:52;10.80;1.00
31597;DHT22;18201;50.978;7.034;2023-03-19T01:16:23;10.80;1.00
31597;DHT22;18201;50.978;7.034;2023-03-19T01:16:57;10.80;1.00
31597;DHT22;18201;50.978;7.034;2023-03-19T01:17:28;10.80;1.00
31597;DHT22;18201;50.978;7.034;2023-03-19T01:17:58;10.80;1.00
31597;DHT22;18201;50.978;7.034;2023-03-19T01:18:30;10.70;1.00
31597;DHT22;18201;50.978;7.034;2023-03-19T01:19:02;10.80;1.00
31597;DHT22;18201;50.978;7.034;2023-03-19T01:19:33;10.70;1.00
31597;DHT22;18201;50.978;7.034;2023-03-19T01:20:05;10.70;8.80
31597;DHT22;18201;50.978;7.034;2023-03-19T01:20:42;10.70;19.50
31597;DHT22;18201;50.978;7.034;2023-03-19T01:21:13;10.60;28.30
31597;DHT22;18201;50.978;7.034;2023-03-19T01:21:45;10.70;31.00
31597;DHT22;18201;50.978;7.034;2023-03-19T01:22:16;10.60;40.60
31597;DHT22;18201;50.978;7.034;2023-03-19T01:22:48;10.70;38.40
31597;DHT22;18201;50.978;7.034;2023-03-19T01:23:20;10.60;41.90
31597;DHT22;18201;50.978;7.034;2023-03-19T01:23:51;10.60;42.70
31597;DHT22;18201;50.978;7.034;2023-03-19T01:24:22;10.60;26.90
31597;DHT22;18201;50.978;7.034;2023-03-19T01:24:54;10.50;22.60
31597;DHT22;18201;50.978;7.034;2023-03-19T01:25:25;10.50;29.80
31597;DHT22;18201;50.978;7.034;2023-03-19T01:25:56;10.50;29.90
31597;DHT22;18201;50.978;7.034;2023-03-19T01:26:28;10.50;32.20
31597;DHT22;18201;50.978;7.034;2023-03-19T01:26:59;10.50;31.90
31597;DHT22;18201;50.978;7.034;2023-03-19T01:27:30;10.50;33.60
31597;DHT22;18201;50.978;7.034;2023-03-19T01:28:02;10.50;37.80
31597;DHT22;18201;50.978;7.034;2023-03-19T01:28:34;10.50;40.20
31597;DHT22;18201;50.978;7.034;2023-03-19T01:29:05;10.40;33.60
31597;DHT22;18201;50.978;7.034;2023-03-19T01:29:37;10.40;41.10
31597;DHT22;18201;50.978;7.034;2023-03-19T01:30:10;10.40;45.40
31597;DHT22;18201;50.978;7.034;2023-03-19T01:30:41;10.40;53.90
31597;DHT22;18201;50.978;7.034;2023-03-19T01:31:12;10.40;64.10
31597;DHT22;18201;50.978;7.034;2023-03-19T01:31:44;10.40;79.30
31597;DHT22;18201;50.978;7.034;2023-03-19T01:32:15;10.40;94.20
31597;DHT22;18201;50.978;7.034;2023-03-19T01:32:46;10.40;99.10
31597;DHT22;18201;50.978;7.034;2023-03-19T01:33:17;10.40;99.90
31597;DHT22;18201;50.978;7.034;2023-03-19T01:33:50;10.40;99.90
31597;DHT22;18201;50.978;7.034;2023-03-19T01:34:21;10.40;99.90
31597;DHT22;18201;50.978;7.034;2023-03-19T01:34:52;10.40;99.90
31597;DHT22;18201;50.978;7.034;2023-03-19T01:35:24;10.40;99.90
31597;DHT22;18201;50.978;7.034;2023-03-19T01:35:55;10.30;99.90
31597;DHT22;18201;50.978;7.034;2023-03-19T01:36:28;10.30;99.90
31597;DHT22;18201;50.978;7.034;2023-03-19T01:37:00;10.30;99.90
31597;DHT22;18201;50.978;7.034;2023-03-19T01:37:31;10.30;99.90
31597;DHT22;18201;50.978;7.034;2023-03-19T01:38:03;10.30;99.90
31597;DHT22;18201;50.978;7.034;2023-03-19T01:38:35;10.30;99.90
31597;DHT22;18201;50.978;7.034;2023-03-19T01:39:06;10.30;99.90
31597;DHT22;18201;50.978;7.034;2023-03-19T01:39:37;10.30;99.90
31597;DHT22;18201;50.978;7.034;2023-03-19T01:40:10;10.30;99.90
31597;DHT22;18201;50.978;7.034;2023-03-19T01:40:44;10.30;99.90
31597;DHT22;18201;50.978;7.034;2023-03-19T01:41:15;10.20;99.90
31597;DHT22;18201;50.978;7.034;2023-03-19T01:41:46;10.20;99.90
31597;DHT22;18201;50.978;7.034;2023-03-19T01:42:18;10.20;99.90
31597;DHT22;18201;50.978;7.034;2023-03-19T01:42:54;10.20;99.90
31597;DHT22;18201;50.978;7.034;2023-03-19T01:43:26;10.20;99.90
31597;DHT22;18201;50.978;7.034;2023-03-19T01:43:59;10.20;99.90
31597;DHT22;18201;50.978;7.034;2023-03-19T01:44:32;10.20;99.90
31597;DHT22;18201;50.978;7.034;2023-03-19T01:45:30;10.20;99.90
31597;DHT22;18201;50.978;7.034;2023-03-19T01:46:05;10.20;99.90
31597;DHT22;18201;50.978;7.034;2023-03-19T01:46:37;10.20;99.90
31597;DHT22;18201;50.978;7.034;2023-03-19T01:47:16;10.10;99.90
31597;DHT22;18201;50.978;7.034;2023-03-19T01:47:47;10.10;99.90
31597;DHT22;18201;50.978;7.034;2023-03-19T01:48:24;10.10;99.90
31597;DHT22;18201;50.978;7.034;2023-03-19T01:48:59;10.10;99.90
31597;DHT22;18201;50.978;7.034;2023-03-19T01:49:31;10.10;99.90
31597;DHT22;18201;50.978;7.034;2023-03-19T01:50:03;10.10;99.90
31597;DHT22;18201;50.978;7.034;2023-03-19T01:50:40;10.10;99.90
31597;DHT22;18201;50.978;7.034;2023-03-19T01:51:14;10.00;99.90
31597;DHT22;18201;50.978;7.034;2023-03-19T01:51:46;10.10;99.90
31597;DHT22;18201;50.978;7.034;2023-03-19T01:52:19;10.10;99.90
31597;DHT22;18201;50.978;7.034;2023-03-19T01:52:51;10.00;99.90
31597;DHT22;18201;50.978;7.034;2023-03-19T01:53:24;10.00;99.90
31597;DHT22;18201;50.978;7.034;2023-03-19T01:53:58;10.00;99.90
31597;DHT22;18201;50.978;7.034;2023-03-19T01:54:31;10.00;99.90
31597;DHT22;18201;50.978;7.034;2023-03-19T01:55:04;10.00;99.90
31597;DHT22;18201;50.978;7.034;2023-03-19T01:55:36;10.00;99.90
31597;DHT22;18201;50.978;7.034;2023-03-19T01:56:11;10.00;99.90
31597;DHT22;18201;50.978;7.034;2023-03-19T01:56:45;10.00;99.90
31597;DHT22;18201;50.978;7.034;2023-03-19T01:57:18;10.00;99.90
31597;DHT22;18201;50.978;7.034;2023-03-19T01:57:50;10.00;99.90
31597;DHT22;18201;50.978;7.034;2023-03-19T01:58:21;9.90;99.90
31597;DHT22;18201;50.978;7.034;2023-03-19T01:58:56;9.90;99.90
31597;DHT22;18201;50.978;7.034;2023-03-19T01:59:31;9.90;99.90
31597;DHT22;18201;50.978;7.034;2023-03-19T02:00:04;10.00;99.90
31597;DHT22;18201;50.978;7.034;2023-03-19T02:00:38;9.90;99.90
31597;DHT22;18201;50.978;7.034;2023-03-19T02:01:11;9.90;99.90
31597;DHT22;18201;50.978;7.034;2023-03-19T02:01:46;9.90;99.90
31597;DHT22;18201;50.978;7.034;2023-03-19T02:02:23;9.90;99.90
31597;DHT22;18201;50.978;7.034;2023-03-19T02:02:59;9.90;99.90
31597;DHT22;18201;50.978;7.034;2023-03-19T02:03:32;9.90;99.90
31597;DHT22;18201;50.978;7.034;2023-03-19T02:04:04;9.90;99.90
31597;DHT22;18201;50.978;7.034;2023-03-19T02:04:38;9.90;99.90
31597;DHT22;18201;50.978;7.034;2023-03-19T02:05:12;9.90;99.90
31597;DHT22;18201;50.978;7.034;2023-03-19T02:05:45;9.90;99.90
31597;DHT22;18201;50.978;7.034;2023-03-19T02:06:18;9.90;99.90
31597;DHT22;18201;50.978;7.034;2023-03-19T02:06:51;9.90;99.90
31597;DHT22;18201;50.978;7.034;2023-03-19T02:07:22;9.90;99.90
31597;DHT22;18201;50.978;7.034;2023-03-19T02:07:57;9.90;99.90
31597;DHT22;18201;50.978;7.034;2023-03-19T02:08:31;9.90;99.90
31597;DHT22;18201;50.978;7.034;2023-03-19T02:09:03;9.90;99.90
31597;DHT22;18201;50.978;7.034;2023-03-19T02:09:36;9.80;99.90
31597;DHT22;18201;50.978;7.034;2023-03-19T02:10:11;9.80;99.90
31597;DHT22;18201;50.978;7.034;2023-03-19T02:10:44;9.80;99.90
31597;DHT22;18201;50.978;7.034;2023-03-19T02:11:17;9.80;99.90
31597;DHT22;18201;50.978;7.034;2023-03-19T02:11:49;9.80;99.90
31597;DHT22;18201;50.978;7.034;2023-03-19T02:12:20;9.80;99.90
31597;DHT22;18201;50.978;7.034;2023-03-19T02:12:52;9.80;99.90
31597;DHT22;18201;50.978;7.034;2023-03-19T02:13:23;9.80;99.90
31597;DHT22;18201;50.978;7.034;2023-03-19T02:13:54;9.80;99.90
31597;DHT22;18201;50.978;7.034;2023-03-19T02:14:25;9.90;99.90
31597;DHT22;18201;50.978;7.034;2023-03-19T02:14:57;9.80;99.90
31597;DHT22;18201;50.978;7.034;2023-03-19T02:15:28;9.80;99.90
31597;DHT22;18201;50.978;7.034;2023-03-19T02:16:00;9.80;99.90
31597;DHT22;18201;50.978;7.034;2023-03-19T02:16:32;9.80;99.90
31597;DHT22;18201;50.978;7.034;2023-03-19T02:17:03;9.80;99.90
31597;DHT22;18201;50.978;7.034;2023-03-19T02:17:34;9.80;99.90
31597;DHT22;18201;50.978;7.034;2023-03-19T02:18:06;9.80;99.90
31597;DHT22;18201;50.978;7.034;2023-03-19T02:18:38;9.90;99.90
31597;DHT22;18201;50.978;7.034;2023-03-19T02:19:13;9.90;99.90
31597;DHT22;18201;50.978;7.034;2023-03-19T02:19:49;9.80;99.90
31597;DHT22;18201;50.978;7.034;2023-03-19T02:20:28;9.90;99.90
31597;DHT22;18201;50.978;7.034;2023-03-19T02:21:04;9.90;99.90
31597;DHT22;18201;50.978;7.034;2023-03-19T02:21:36;9.90;99.90
31597;DHT22;18201;50.978;7.034;2023-03-19T02:22:09;9.90;99.90
31597;DHT22;18201;50.978;7.034;2023-03-19T02:22:46;9.80;99.90
31597;DHT22;18201;50.978;7.034;2023-03-19T02:23:25;9.90;99.90
31597;DHT22;18201;50.978;7.034;2023-03-19T02:24:05;9.90;99.90
31597;DHT22;18201;50.978;7.034;2023-03-19T02:24:40;9.90;99.90
31597;DHT22;18201;50.978;7.034;2023-03-19T02:25:18;9.90;99.90
31597;DHT22;18201;50.978;7.034;2023-03-19T02:26:00;9.90;99.90
31597;DHT22;18201;50.978;7.034;2023-03-19T02:26:32;9.90;99.90
31597;DHT22;18201;50.978;7.034;2023-03-19T02:27:04;9.90;99.90
31597;DHT22;18201;50.978;7.034;2023-03-19T02:27:38;9.90;99.90
31597;DHT22;18201;50.978;7.034;2023-03-19T02:28:09;9.90;99.90
31597;DHT22;18201;50.978;7.034;2023-03-19T02:28:42;9.90;99.90
31597;DHT22;18201;50.978;7.034;2023-03-19T02:29:13;9.90;99.90
31597;DHT22;18201;50.978;7.034;2023-03-19T02:29:45;9.90;99.90
31597;DHT22;18201;50.978;7.034;2023-03-19T02:30:18;9.90;99.90
31597;DHT22;18201;50.978;7.034;2023-03-19T02:30:49;9.90;99.90
31597;DHT22;18201;50.978;7.034;2023-03-19T02:31:21;9.90;99.90
31597;DHT22;18201;50.978;7.034;2023-03-19T02:31:52;9.90;99.90
31597;DHT22;18201;50.978;7.034;2023-03-19T02:32:23;9.90;99.90
31597;DHT22;18201;50.978;7.034;2023-03-19T02:32:56;9.90;99.90
31597;DHT22;18201;50.978;7.034;2023-03-19T02:33:27;9.90;99.90
31597;DHT22;18201;50.978;7.034;2023-03-19T02:34:00;9.90;99.90
31597;DHT22;18201;50.978;7.034;2023-03-19T02:34:34;9.90;99.90
31597;DHT22;18201;50.978;7.034;2023-03-19T02:35:07;9.90;99.90
31597;DHT22;18201;50.978;7.034;2023-03-19T02:35:39;9.90;99.90
31597;DHT22;18201;50.978;7.034;2023-03-19T02:36:15;9.90;99.90
31597;DHT22;18201;50.978;7.034;2023-03-19T02:36:50;10.00;99.90
31597;DHT22;18201;50.978;7.034;2023-03-19T02:37:25;10.00;99.90
31597;DHT22;18201;50.978;7.034;2023-03-19T02:38:00;10.00;99.90
31597;DHT22;18201;50.978;7.034;2023-03-19T02:38:33;10.00;99.90
31597;DHT22;18201;50.978;7.034;2023-03-19T02:39:07;10.00;99.90
31597;DHT22;18201;50.978;7.034;2023-03-19T02:39:48;9.90;99.90
31597;DHT22;18201;50.978;7.034;2023-03-19T02:40:22;9.90;99.90
31597;DHT22;18201;50.978;7.034;2023-03-19T02:40:59;9.90;99.90
31597;DHT22;18201;50.978;7.034;2023-03-19T02:41:32;10.00;99.90
31597;DHT22;18201;50.978;7.034;2023-03-19T02:42:04;9.90;99.90
31597;DHT22;18201;50.978;7.034;2023-03-19T02:42:36;10.00;99.90
31597;DHT22;18201;50.978;7.034;2023-03-19T02:43:08;10.00;99.90
31597;DHT22;18201;50.978;7.034;2023-03-19T02:43:40;9.90;99.90
31597;DHT22;18201;50.978;7.034;2023-03-19T02:44:11;10.00;99.90
31597;DHT22;18201;50.978;7.034;2023-03-19T02:44:43;10.00;99.90
31597;DHT22;18201;50.978;7.034;2023-03-19T02:45:15;10.00;99.90
31597;DHT22;18201;50.978;7.034;2023-03-19T02:45:46;10.00;99.90
31597;DHT22;18201;50.978;7.034;2023-03-19T02:46:17;10.00;99.90
31597;DHT22;18201;50.978;7.034;2023-03-19T02:46:50;10.00;99.90
31597;DHT22;18201;50.978;7.034;2023-03-19T02:47:21;10.00;99.90
31597;DHT22;18201;50.978;7.034;2023-03-19T02:47:52;10.00;99.90
31597;DHT22;18201;50.978;7.034;2023-03-19T02:48:24;10.00;99.90
31597;DHT22;18201;50.978;7.034;2023-03-19T02:48:55;10.00;99.90
31597;DHT22;18201;50.978;7.034;2023-03-19T02:49:26;10.00;99.90
31597;DHT22;18201;50.978;7.034;2023-03-19T02:49:58;10.10;99.90
31597;DHT22;18201;50.978;7.034;2023-03-19T02:50:28;10.10;99.90
31597;DHT22;18201;50.978;7.034;2023-03-19T02:50:59;10.00;99.90
31597;DHT22;18201;50.978;7.034;2023-03-19T02:51:31;10.00;99.90
31597;DHT22;18201;50.978;7.034;2023-03-19T02:52:03;10.10;99.90
31597;DHT22;18201;50.978;7.034;2023-03-19T02:52:34;10.00;99.90
31597;DHT22;18201;50.978;7.034;2023-03-19T02:53:06;10.10;99.90
31597;DHT22;18201;50.978;7.034;2023-03-19T02:53:37;10.10;99.90
31597;DHT22;18201;50.978;7.034;2023-03-19T02:54:08;10.10;99.90
31597;DHT22;18201;50.978;7.034;2023-03-19T02:54:40;10.10;99.90
31597;DHT22;18201;50.978;7.034;2023-03-19T02:55:11;10.10;99.90
31597;DHT22;18201;50.978;7.034;2023-03-19T02:55:42;10.10;99.90
31597;DHT22;18201;50.978;7.034;2023-03-19T02:56:14;10.10;99.90
31597;DHT22;18201;50.978;7.034;2023-03-19T02:56:47;10.10;99.90
31597;DHT22;18201;50.978;7.034;2023-03-19T02:57:18;10.10;99.90
31597;DHT22;18201;50.978;7.034;2023-03-19T02:57:50;10.10;99.90
31597;DHT22;18201;50.978;7.034;2023-03-19T02:58:22;10.10;99.90
31597;DHT22;18201;50.978;7.034;2023-03-19T02:58:54;10.10;99.90
31597;DHT22;18201;50.978;7.034;2023-03-19T02:59:25;10.10;99.90
31597;DHT22;18201;50.978;7.034;2023-03-19T02:59:56;10.10;99.90
31597;DHT22;18201;50.978;7.034;2023-03-19T03:00:27;10.10;99.90
31597;DHT22;18201;50.978;7.034;2023-03-19T03:00:59;10.10;99.90
31597;DHT22;18201;50.978;7.034;2023-03-19T03:01:30;10.10;99.90
31597;DHT22;18201;50.978;7.034;2023-03-19T03:02:01;10.10;99.90
31597;DHT22;18201;50.978;7.034;2023-03-19T03:02:31;10.20;99.90
31597;DHT22;18201;50.978;7.034;2023-03-19T03:03:04;10.10;99.90
31597;DHT22;18201;50.978;7.034;2023-03-19T03:03:36;10.10;99.90
31597;DHT22;18201;50.978;7.034;2023-03-19T03:04:07;10.10;99.90
31597;DHT22;18201;50.978;7.034;2023-03-19T03:04:39;10.20;99.90
31597;DHT22;18201;50.978;7.034;2023-03-19T03:05:10;10.10;99.90
31597;DHT22;18201;50.978;7.034;2023-03-19T03:05:41;10.10;99.90
31597;DHT22;18201;50.978;7.034;2023-03-19T03:06:13;10.20;99.90
31597;DHT22;18201;50.978;7.034;2023-03-19T03:06:44;10.10;99.90
31597;DHT22;18201;50.978;7.034;2023-03-19T03:07:15;10.20;99.90
31597;DHT22;18201;50.978;7.034;2023-03-19T03:07:47;10.20;99.90
31597;DHT22;18201;50.978;7.034;2023-03-19T03:08:19;10.20;99.90
31597;DHT22;18201;50.978;7.034;2023-03-19T03:08:50;10.20;99.90
31597;DHT22;18201;50.978;7.034;2023-03-19T03:09:22;10.20;99.90
31597;DHT22;18201;50.978;7.034;2023-03-19T03:09:53;10.20;99.90
31597;DHT22;18201;50.978;7.034;2023-03-19T03:10:24;10.10;99.90
31597;DHT22;18201;50.978;7.034;2023-03-19T03:10:56;10.20;99.90
31597;DHT22;18201;50.978;7.034;2023-03-19T03:11:28;10.20;99.90
31597;DHT22;18201;50.978;7.034;2023-03-19T03:11:59;10.20;99.90
31597;DHT22;18201;50.978;7.034;2023-03-19T03:12:31;10.20;99.90
31597;DHT22;18201;50.978;7.034;2023-03-19T03:13:02;10.20;99.90
31597;DHT22;18201;50.978;7.034;2023-03-19T03:13:34;10.20;99.90
31597;DHT22;18201;50.978;7.034;2023-03-19T03:14:06;10.20;99.90
31597;DHT22;18201;50.978;7.034;2023-03-19T03:14:37;10.20;99.90
31597;DHT22;18201;50.978;7.034;2023-03-19T03:15:08;10.20;99.90
31597;DHT22;18201;50.978;7.034;2023-03-19T03:15:40;10.20;99.90
31597;DHT22;18201;50.978;7.034;2023-03-19T03:16:12;10.20;99.90
31597;DHT22;18201;50.978;7.034;2023-03-19T03:16:43;10.20;99.90
31597;DHT22;18201;50.978;7.034;2023-03-19T03:17:15;10.20;99.90
31597;DHT22;18201;50.978;7.034;2023-03-19T03:17:46;10.20;99.90
31597;DHT22;18201;50.978;7.034;2023-03-19T03:18:17;10.20;99.90
31597;DHT22;18201;50.978;7.034;2023-03-19T03:18:49;10.20;99.90
31597;DHT22;18201;50.978;7.034;2023-03-19T03:19:20;10.20;99.90
31597;DHT22;18201;50.978;7.034;2023-03-19T03:19:52;10.20;99.90
31597;DHT22;18201;50.978;7.034;2023-03-19T03:20:24;10.20;99.90
31597;DHT22;18201;50.978;7.034;2023-03-19T03:20:55;10.20;99.90
31597;DHT22;18201;50.978;7.034;2023-03-19T03:21:26;10.20;99.90
31597;DHT22;18201;50.978;7.034;2023-03-19T03:21:57;10.20;99.90
31597;DHT22;18201;50.978;7.034;2023-03-19T03:22:30;10.20;99.90
31597;DHT22;18201;50.978;7.034;2023-03-19T03:23:02;10.30;99.90
31597;DHT22;18201;50.978;7.034;2023-03-19T03:23:32;10.20;99.90
31597;DHT22;18201;50.978;7.034;2023-03-19T03:24:07;10.30;99.90
31597;DHT22;18201;50.978;7.034;2023-03-19T03:24:38;10.30;99.90
31597;DHT22;18201;50.978;7.034;2023-03-19T03:25:09;10.20;99.90
31597;DHT22;18201;50.978;7.034;2023-03-19T03:25:41;10.20;99.90